sensor_id;sensor_type;location;lat;lon;timestamp;temperature;humidity
3348;DHT22;1687;49.540;8.574;2022-09-29T00:00:51;11.00;79.90
3348;DHT22;1687;49.540;8.574;2022-09-29T00:03:18;11.00;80.10
3348;DHT22;1687;49.540;8.574;2022-09-29T00:05:51;11.00;80.20
3348;DHT22;1687;49.540;8.574;2022-09-29T00:08:19;11.00;80.50
3348;DHT22;1687;49.540;8.574;2022-09-29T00:10:46;11.00;80.50
3348;DHT22;1687;49.540;8.574;2022-09-29T00:13:13;10.90;80.30
3348;DHT22;1687;49.540;8.574;2022-09-29T00:15:40;10.80;80.50
3348;DHT22;1687;49.540;8.574;2022-09-29T00:18:06;10.80;80.80
3348;DHT22;1687;49.540;8.574;2022-09-29T00:20:33;10.80;81.00
3348;DHT22;1687;49.540;8.574;2022-09-29T00:22:59;10.80;81.40
3348;DHT22;1687;49.540;8.574;2022-09-29T00:25:25;10.80;81.80
3348;DHT22;1687;49.540;8.574;2022-09-29T00:27:51;10.80;82.00
3348;DHT22;1687;49.540;8.574;2022-09-29T00:30:17;10.90;82.10
3348;DHT22;1687;49.540;8.574;2022-09-29T00:32:42;10.80;82.00
3348;DHT22;1687;49.540;8.574;2022-09-29T00:35:09;10.80;82.10
3348;DHT22;1687;49.540;8.574;2022-09-29T00:37:35;10.70;82.20
3348;DHT22;1687;49.540;8.574;2022-09-29T00:40:02;10.70;82.50
3348;DHT22;1687;49.540;8.574;2022-09-29T00:42:28;10.60;82.80
3348;DHT22;1687;49.540;8.574;2022-09-29T00:45:18;10.60;83.20
3348;DHT22;1687;49.540;8.574;2022-09-29T00:48:02;10.70;83.70
3348;DHT22;1687;49.540;8.574;2022-09-29T00:50:49;10.60;83.50
3348;DHT22;1687;49.540;8.574;2022-09-29T00:53:17;10.60;83.80
3348;DHT22;1687;49.540;8.574;2022-09-29T00:56:04;10.60;84.20
3348;DHT22;1687;49.540;8.574;2022-09-29T00:58:35;10.60;84.60
3348;DHT22;1687;49.540;8.574;2022-09-29T01:01:04;10.60;84.60
3348;DHT22;1687;49.540;8.574;2022-09-29T01:03:34;10.50;84.70
3348;DHT22;1687;49.540;8.574;2022-09-29T01:06:10;10.50;85.20
3348;DHT22;1687;49.540;8.574;2022-09-29T01:08:56;10.50;85.20
3348;DHT22;1687;49.540;8.574;2022-09-29T01:11:24;10.50;85.80
3348;DHT22;1687;49.540;8.574;2022-09-29T01:13:51;10.60;86.00
3348;DHT22;1687;49.540;8.574;2022-09-29T01:16:19;10.50;86.00
3348;DHT22;1687;49.540;8.574;2022-09-29T01:18:45;10.40;85.80
3348;DHT22;1687;49.540;8.574;2022-09-29T01:21:23;10.40;86.50
3348;DHT22;1687;49.540;8.574;2022-09-29T01:35:29;10.20;87.90
3348;DHT22;1687;49.540;8.574;2022-09-29T01:41:03;10.20;88.80
3348;DHT22;1687;49.540;8.574;2022-09-29T01:43:39;10.20;89.60
3348;DHT22;1687;49.540;8.574;2022-09-29T01:46:31;10.30;89.90
3348;DHT22;1687;49.540;8.574;2022-09-29T01:49:00;10.40;90.00
3348;DHT22;1687;49.540;8.574;2022-09-29T01:54:30;10.40;90.10
3348;DHT22;1687;49.540;8.574;2022-09-29T01:57:06;10.30;90.10
3348;DHT22;1687;49.540;8.574;2022-09-29T01:59:53;10.20;90.20
3348;DHT22;1687;49.540;8.574;2022-09-29T02:02:31;10.20;90.50
3348;DHT22;1687;49.540;8.574;2022-09-29T02:05:04;10.20;90.70
3348;DHT22;1687;49.540;8.574;2022-09-29T02:07:37;10.10;90.70
3348;DHT22;1687;49.540;8.574;2022-09-29T02:10:09;10.10;91.10
3348;DHT22;1687;49.540;8.574;2022-09-29T02:12:41;10.10;91.20
3348;DHT22;1687;49.540;8.574;2022-09-29T02:15:13;10.10;91.30
3348;DHT22;1687;49.540;8.574;2022-09-29T02:17:44;10.10;91.70
3348;DHT22;1687;49.540;8.574;2022-09-29T02:20:13;10.30;92.00
3348;DHT22;1687;49.540;8.574;2022-09-29T02:22:39;10.30;91.90
3348;DHT22;1687;49.540;8.574;2022-09-29T02:25:08;10.30;91.90
3348;DHT22;1687;49.540;8.574;2022-09-29T02:27:35;10.30;92.30
3348;DHT22;1687;49.540;8.574;2022-09-29T02:30:03;10.40;92.30
3348;DHT22;1687;49.540;8.574;2022-09-29T02:32:32;10.40;92.50
3348;DHT22;1687;49.540;8.574;2022-09-29T02:34:58;10.30;92.50
3348;DHT22;1687;49.540;8.574;2022-09-29T02:45:55;10.10;92.60
3348;DHT22;1687;49.540;8.574;2022-09-29T02:49:21;10.10;93.10
3348;DHT22;1687;49.540;8.574;2022-09-29T02:51:56;10.10;93.10
3348;DHT22;1687;49.540;8.574;2022-09-29T02:54:46;10.00;93.20
3348;DHT22;1687;49.540;8.574;2022-09-29T02:57:43;10.10;93.40
3348;DHT22;1687;49.540;8.574;2022-09-29T03:00:15;10.20;93.80
3348;DHT22;1687;49.540;8.574;2022-09-29T03:02:43;10.20;93.60
3348;DHT22;1687;49.540;8.574;2022-09-29T03:05:11;10.20;94.00
3348;DHT22;1687;49.540;8.574;2022-09-29T03:07:39;10.30;93.90
3348;DHT22;1687;49.540;8.574;2022-09-29T03:10:06;10.30;93.90
3348;DHT22;1687;49.540;8.574;2022-09-29T03:12:33;10.30;94.10
3348;DHT22;1687;49.540;8.574;2022-09-29T03:14:59;10.30;94.10
3348;DHT22;1687;49.540;8.574;2022-09-29T03:17:25;10.40;94.30
3348;DHT22;1687;49.540;8.574;2022-09-29T03:19:51;10.40;94.30
3348;DHT22;1687;49.540;8.574;2022-09-29T03:22:16;10.40;94.40
3348;DHT22;1687;49.540;8.574;2022-09-29T03:24:43;10.30;93.90
3348;DHT22;1687;49.540;8.574;2022-09-29T03:27:09;10.30;94.20
3348;DHT22;1687;49.540;8.574;2022-09-29T03:29:36;10.20;94.20
3348;DHT22;1687;49.540;8.574;2022-09-29T03:32:03;10.20;94.40
3348;DHT22;1687;49.540;8.574;2022-09-29T03:34:29;10.10;94.20
3348;DHT22;1687;49.540;8.574;2022-09-29T03:36:55;10.10;94.60
3348;DHT22;1687;49.540;8.574;2022-09-29T03:39:23;10.20;94.80
3348;DHT22;1687;49.540;8.574;2022-09-29T03:41:49;10.20;94.80
3348;DHT22;1687;49.540;8.574;2022-09-29T03:44:15;10.30;94.90
3348;DHT22;1687;49.540;8.574;2022-09-29T03:46:40;10.30;94.80
3348;DHT22;1687;49.540;8.574;2022-09-29T03:49:09;10.40;95.10
3348;DHT22;1687;49.540;8.574;2022-09-29T03:51:36;10.50;95.10
3348;DHT22;1687;49.540;8.574;2022-09-29T03:54:02;10.50;95.00
3348;DHT22;1687;49.540;8.574;2022-09-29T03:56:28;10.50;94.90
3348;DHT22;1687;49.540;8.574;2022-09-29T03:58:54;10.50;94.80
3348;DHT22;1687;49.540;8.574;2022-09-29T04:01:20;10.40;95.10
3348;DHT22;1687;49.540;8.574;2022-09-29T04:03:45;10.40;95.10
3348;DHT22;1687;49.540;8.574;2022-09-29T04:06:11;10.50;95.50
3348;DHT22;1687;49.540;8.574;2022-09-29T04:08:37;10.50;95.20
3348;DHT22;1687;49.540;8.574;2022-09-29T04:11:04;10.60;95.20
3348;DHT22;1687;49.540;8.574;2022-09-29T04:13:30;10.60;95.20
3348;DHT22;1687;49.540;8.574;2022-09-29T04:16:03;10.60;95.10
3348;DHT22;1687;49.540;8.574;2022-09-29T04:18:30;10.60;95.30
3348;DHT22;1687;49.540;8.574;2022-09-29T04:20:57;10.60;95.20
3348;DHT22;1687;49.540;8.574;2022-09-29T04:23:28;10.60;95.20
3348;DHT22;1687;49.540;8.574;2022-09-29T04:25:55;10.60;95.20
3348;DHT22;1687;49.540;8.574;2022-09-29T04:28:23;10.60;95.30
3348;DHT22;1687;49.540;8.574;2022-09-29T04:30:49;10.50;95.20
3348;DHT22;1687;49.540;8.574;2022-09-29T04:33:14;10.40;94.90
3348;DHT22;1687;49.540;8.574;2022-09-29T04:35:40;10.40;95.00
3348;DHT22;1687;49.540;8.574;2022-09-29T04:38:06;10.30;95.00
3348;DHT22;1687;49.540;8.574;2022-09-29T04:40:33;10.30;95.10
3348;DHT22;1687;49.540;8.574;2022-09-29T04:43:00;10.30;95.20
3348;DHT22;1687;49.540;8.574;2022-09-29T04:45:26;10.30;95.30
3348;DHT22;1687;49.540;8.574;2022-09-29T04:47:52;10.30;95.30
3348;DHT22;1687;49.540;8.574;2022-09-29T04:50:17;10.30;95.20
3348;DHT22;1687;49.540;8.574;2022-09-29T04:52:43;10.30;95.30
3348;DHT22;1687;49.540;8.574;2022-09-29T04:55:10;10.20;95.30
3348;DHT22;1687;49.540;8.574;2022-09-29T04:57:37;10.20;95.20
3348;DHT22;1687;49.540;8.574;2022-09-29T05:00:04;10.10;95.10
3348;DHT22;1687;49.540;8.574;2022-09-29T05:02:32;10.00;95.00
3348;DHT22;1687;49.540;8.574;2022-09-29T05:04:59;10.00;95.10
3348;DHT22;1687;49.540;8.574;2022-09-29T05:07:25;10.00;95.10
3348;DHT22;1687;49.540;8.574;2022-09-29T05:09:50;10.00;95.40
3348;DHT22;1687;49.540;8.574;2022-09-29T05:12:16;10.10;95.10
3348;DHT22;1687;49.540;8.574;2022-09-29T05:14:42;10.00;94.90
3348;DHT22;1687;49.540;8.574;2022-09-29T05:17:07;10.00;95.00
3348;DHT22;1687;49.540;8.574;2022-09-29T05:19:33;10.10;95.50
3348;DHT22;1687;49.540;8.574;2022-09-29T05:21:59;10.20;95.50
3348;DHT22;1687;49.540;8.574;2022-09-29T05:24:25;10.30;95.40
3348;DHT22;1687;49.540;8.574;2022-09-29T05:26:51;10.30;95.60
3348;DHT22;1687;49.540;8.574;2022-09-29T05:29:17;10.30;95.40
3348;DHT22;1687;49.540;8.574;2022-09-29T05:31:43;10.40;95.50
3348;DHT22;1687;49.540;8.574;2022-09-29T05:34:09;10.50;95.70
3348;DHT22;1687;49.540;8.574;2022-09-29T05:36:35;10.50;95.50
3348;DHT22;1687;49.540;8.574;2022-09-29T05:39:01;10.50;95.40
3348;DHT22;1687;49.540;8.574;2022-09-29T05:41:27;10.60;95.50
3348;DHT22;1687;49.540;8.574;2022-09-29T05:43:54;10.60;95.60
3348;DHT22;1687;49.540;8.574;2022-09-29T05:46:20;10.60;95.60
3348;DHT22;1687;49.540;8.574;2022-09-29T05:48:48;10.70;95.80
3348;DHT22;1687;49.540;8.574;2022-09-29T05:51:17;10.80;95.70
3348;DHT22;1687;49.540;8.574;2022-09-29T05:53:45;10.80;95.80
3348;DHT22;1687;49.540;8.574;2022-09-29T05:56:14;10.90;95.70
3348;DHT22;1687;49.540;8.574;2022-09-29T05:58:41;10.90;95.70
3348;DHT22;1687;49.540;8.574;2022-09-29T06:01:13;11.00;95.70
3348;DHT22;1687;49.540;8.574;2022-09-29T06:03:40;11.10;95.50
3348;DHT22;1687;49.540;8.574;2022-09-29T06:06:09;11.10;95.60
3348;DHT22;1687;49.540;8.574;2022-09-29T06:08:37;11.10;95.40
3348;DHT22;1687;49.540;8.574;2022-09-29T06:11:05;11.10;95.20
3348;DHT22;1687;49.540;8.574;2022-09-29T06:13:31;11.10;95.60
3348;DHT22;1687;49.540;8.574;2022-09-29T06:15:59;11.10;95.50
3348;DHT22;1687;49.540;8.574;2022-09-29T06:18:25;11.20;95.70
3348;DHT22;1687;49.540;8.574;2022-09-29T06:20:51;11.20;95.60
3348;DHT22;1687;49.540;8.574;2022-09-29T06:23:16;11.30;95.60
3348;DHT22;1687;49.540;8.574;2022-09-29T06:25:42;11.20;95.30
3348;DHT22;1687;49.540;8.574;2022-09-29T06:28:07;11.20;95.50
3348;DHT22;1687;49.540;8.574;2022-09-29T06:30:33;11.20;95.60
3348;DHT22;1687;49.540;8.574;2022-09-29T06:32:59;11.30;95.70
3348;DHT22;1687;49.540;8.574;2022-09-29T06:35:24;11.30;95.50
3348;DHT22;1687;49.540;8.574;2022-09-29T06:38:09;11.30;95.60
3348;DHT22;1687;49.540;8.574;2022-09-29T06:40:35;11.40;95.70
3348;DHT22;1687;49.540;8.574;2022-09-29T06:43:00;11.40;95.20
3348;DHT22;1687;49.540;8.574;2022-09-29T06:45:27;11.40;95.70
3348;DHT22;1687;49.540;8.574;2022-09-29T06:47:59;11.50;95.70
3348;DHT22;1687;49.540;8.574;2022-09-29T06:50:25;11.60;95.70
3348;DHT22;1687;49.540;8.574;2022-09-29T06:52:50;11.70;95.50
3348;DHT22;1687;49.540;8.574;2022-09-29T06:55:16;11.60;95.20
3348;DHT22;1687;49.540;8.574;2022-09-29T06:57:42;11.60;95.70
3348;DHT22;1687;49.540;8.574;2022-09-29T07:00:10;11.70;95.90
3348;DHT22;1687;49.540;8.574;2022-09-29T07:02:36;11.70;95.40
3348;DHT22;1687;49.540;8.574;2022-09-29T07:05:02;11.60;95.10
3348;DHT22;1687;49.540;8.574;2022-09-29T07:07:27;11.70;95.80
3348;DHT22;1687;49.540;8.574;2022-09-29T07:09:53;11.80;96.00
3348;DHT22;1687;49.540;8.574;2022-09-29T07:12:19;12.00;95.90
3348;DHT22;1687;49.540;8.574;2022-09-29T07:14:45;12.10;95.90
3348;DHT22;1687;49.540;8.574;2022-09-29T07:17:10;12.30;95.80
3348;DHT22;1687;49.540;8.574;2022-09-29T07:19:37;12.30;95.60
3348;DHT22;1687;49.540;8.574;2022-09-29T07:22:03;12.20;95.30
3348;DHT22;1687;49.540;8.574;2022-09-29T07:24:30;12.00;94.90
3348;DHT22;1687;49.540;8.574;2022-09-29T07:26:55;11.90;95.20
3348;DHT22;1687;49.540;8.574;2022-09-29T07:29:21;11.90;95.30
3348;DHT22;1687;49.540;8.574;2022-09-29T07:31:47;12.00;95.70
3348;DHT22;1687;49.540;8.574;2022-09-29T07:34:16;12.10;95.40
3348;DHT22;1687;49.540;8.574;2022-09-29T07:36:41;12.20;95.30
3348;DHT22;1687;49.540;8.574;2022-09-29T07:39:07;12.20;95.10
3348;DHT22;1687;49.540;8.574;2022-09-29T07:41:33;12.20;95.40
3348;DHT22;1687;49.540;8.574;2022-09-29T07:43:58;12.20;95.20
3348;DHT22;1687;49.540;8.574;2022-09-29T07:46:24;12.30;95.60
3348;DHT22;1687;49.540;8.574;2022-09-29T07:48:50;12.60;96.00
3348;DHT22;1687;49.540;8.574;2022-09-29T07:51:18;12.90;96.10
3348;DHT22;1687;49.540;8.574;2022-09-29T07:53:44;13.10;96.10
3348;DHT22;1687;49.540;8.574;2022-09-29T07:56:18;13.30;95.70
3348;DHT22;1687;49.540;8.574;2022-09-29T07:58:46;13.20;95.20
3348;DHT22;1687;49.540;8.574;2022-09-29T08:01:17;13.10;95.10
3348;DHT22;1687;49.540;8.574;2022-09-29T08:03:52;13.00;94.90
3348;DHT22;1687;49.540;8.574;2022-09-29T08:06:22;13.00;95.00
3348;DHT22;1687;49.540;8.574;2022-09-29T08:08:49;13.00;95.60
3348;DHT22;1687;49.540;8.574;2022-09-29T08:11:16;13.30;95.90
3348;DHT22;1687;49.540;8.574;2022-09-29T08:13:45;13.50;95.50
3348;DHT22;1687;49.540;8.574;2022-09-29T08:16:13;13.40;94.50
3348;DHT22;1687;49.540;8.574;2022-09-29T08:18:39;13.20;94.50
3348;DHT22;1687;49.540;8.574;2022-09-29T08:21:05;13.10;94.80
3348;DHT22;1687;49.540;8.574;2022-09-29T08:23:40;13.10;95.20
3348;DHT22;1687;49.540;8.574;2022-09-29T08:26:11;13.20;95.10
3348;DHT22;1687;49.540;8.574;2022-09-29T08:28:39;13.30;95.10
3348;DHT22;1687;49.540;8.574;2022-09-29T08:31:07;13.50;95.20
3348;DHT22;1687;49.540;8.574;2022-09-29T08:33:48;13.50;94.90
3348;DHT22;1687;49.540;8.574;2022-09-29T08:36:16;13.70;95.50
3348;DHT22;1687;49.540;8.574;2022-09-29T08:38:48;13.80;94.70
3348;DHT22;1687;49.540;8.574;2022-09-29T08:46:43;13.60;94.40
3348;DHT22;1687;49.540;8.574;2022-09-29T08:49:17;13.60;94.70
3348;DHT22;1687;49.540;8.574;2022-09-29T08:51:51;13.70;94.80
3348;DHT22;1687;49.540;8.574;2022-09-29T08:54:41;13.70;94.10
3348;DHT22;1687;49.540;8.574;2022-09-29T08:57:15;13.60;93.90
3348;DHT22;1687;49.540;8.574;2022-09-29T08:59:45;13.60;94.60
3348;DHT22;1687;49.540;8.574;2022-09-29T09:02:44;13.80;94.70
3348;DHT22;1687;49.540;8.574;2022-09-29T09:05:55;14.00;94.80
3348;DHT22;1687;49.540;8.574;2022-09-29T09:11:37;14.60;94.50
3348;DHT22;1687;49.540;8.574;2022-09-29T09:14:34;14.80;94.30
3348;DHT22;1687;49.540;8.574;2022-09-29T09:19:51;14.60;92.90
3348;DHT22;1687;49.540;8.574;2022-09-29T09:23:03;14.60;93.90
3348;DHT22;1687;49.540;8.574;2022-09-29T09:25:42;14.60;93.30
3348;DHT22;1687;49.540;8.574;2022-09-29T09:28:33;14.80;93.60
3348;DHT22;1687;49.540;8.574;2022-09-29T09:31:07;14.70;92.90
3348;DHT22;1687;49.540;8.574;2022-09-29T09:33:40;14.70;93.00
3348;DHT22;1687;49.540;8.574;2022-09-29T09:36:19;14.70;93.10
3348;DHT22;1687;49.540;8.574;2022-09-29T09:39:10;14.80;93.10
3348;DHT22;1687;49.540;8.574;2022-09-29T09:41:39;14.90;92.50
3348;DHT22;1687;49.540;8.574;2022-09-29T09:46:56;15.10;93.00
3348;DHT22;1687;49.540;8.574;2022-09-29T09:49:46;15.20;92.70
3348;DHT22;1687;49.540;8.574;2022-09-29T09:52:30;15.40;92.80
3348;DHT22;1687;49.540;8.574;2022-09-29T09:55:26;15.40;91.70
3348;DHT22;1687;49.540;8.574;2022-09-29T09:58:19;15.30;91.60
3348;DHT22;1687;49.540;8.574;2022-09-29T10:00:51;15.60;92.60
3348;DHT22;1687;49.540;8.574;2022-09-29T10:03:21;15.80;92.00
3348;DHT22;1687;49.540;8.574;2022-09-29T10:05:47;16.00;92.30
3348;DHT22;1687;49.540;8.574;2022-09-29T10:08:24;16.10;91.80
3348;DHT22;1687;49.540;8.574;2022-09-29T10:10:52;16.10;90.80
3348;DHT22;1687;49.540;8.574;2022-09-29T10:13:19;16.10;90.80
3348;DHT22;1687;49.540;8.574;2022-09-29T10:15:50;15.90;90.30
3348;DHT22;1687;49.540;8.574;2022-09-29T10:18:23;15.90;90.60
3348;DHT22;1687;49.540;8.574;2022-09-29T10:20:52;16.00;90.90
3348;DHT22;1687;49.540;8.574;2022-09-29T10:23:28;16.20;90.70
3348;DHT22;1687;49.540;8.574;2022-09-29T10:26:03;16.40;91.00
3348;DHT22;1687;49.540;8.574;2022-09-29T10:34:03;16.40;88.90
3348;DHT22;1687;49.540;8.574;2022-09-29T10:36:56;16.30;87.80
3348;DHT22;1687;49.540;8.574;2022-09-29T10:42:25;16.30;88.60
3348;DHT22;1687;49.540;8.574;2022-09-29T10:45:22;16.60;89.40
3348;DHT22;1687;49.540;8.574;2022-09-29T10:52:54;16.80;87.90
3348;DHT22;1687;49.540;8.574;2022-09-29T10:57:58;17.40;87.00
3348;DHT22;1687;49.540;8.574;2022-09-29T11:00:43;17.50;86.00
3348;DHT22;1687;49.540;8.574;2022-09-29T11:03:21;17.40;85.00
3348;DHT22;1687;49.540;8.574;2022-09-29T11:06:01;17.40;84.20
3348;DHT22;1687;49.540;8.574;2022-09-29T11:08:31;17.30;84.20
3348;DHT22;1687;49.540;8.574;2022-09-29T11:11:06;17.30;83.70
3348;DHT22;1687;49.540;8.574;2022-09-29T11:14:30;17.40;83.90
3348;DHT22;1687;49.540;8.574;2022-09-29T11:19:58;17.70;83.40
3348;DHT22;1687;49.540;8.574;2022-09-29T11:25:26;17.70;81.30
3348;DHT22;1687;49.540;8.574;2022-09-29T11:36:35;17.00;79.00
3348;DHT22;1687;49.540;8.574;2022-09-29T11:45:04;17.00;79.00
3348;DHT22;1687;49.540;8.574;2022-09-29T11:56:15;17.40;78.80
3348;DHT22;1687;49.540;8.574;2022-09-29T12:01:25;17.50;77.20
3348;DHT22;1687;49.540;8.574;2022-09-29T12:10:16;17.30;77.00
3348;DHT22;1687;49.540;8.574;2022-09-29T12:15:56;17.50;76.90
3348;DHT22;1687;49.540;8.574;2022-09-29T12:18:31;17.70;76.80
3348;DHT22;1687;49.540;8.574;2022-09-29T12:21:07;17.80;76.70
3348;DHT22;1687;49.540;8.574;2022-09-29T12:23:35;17.80;75.70
3348;DHT22;1687;49.540;8.574;2022-09-29T12:26:14;17.70;75.60
3348;DHT22;1687;49.540;8.574;2022-09-29T12:29:21;17.70;75.70
3348;DHT22;1687;49.540;8.574;2022-09-29T12:31:55;17.80;75.50
3348;DHT22;1687;49.540;8.574;2022-09-29T12:34:50;17.90;75.00
3348;DHT22;1687;49.540;8.574;2022-09-29T12:37:40;17.90;75.20
3348;DHT22;1687;49.540;8.574;2022-09-29T12:40:56;18.00;74.30
3348;DHT22;1687;49.540;8.574;2022-09-29T12:44:15;18.10;74.70
3348;DHT22;1687;49.540;8.574;2022-09-29T12:46:52;18.40;74.70
3348;DHT22;1687;49.540;8.574;2022-09-29T12:49:48;18.70;74.00
3348;DHT22;1687;49.540;8.574;2022-09-29T12:52:59;18.30;72.40
3348;DHT22;1687;49.540;8.574;2022-09-29T12:56:19;18.00;73.10
3348;DHT22;1687;49.540;8.574;2022-09-29T12:59:08;17.90;72.30
3348;DHT22;1687;49.540;8.574;2022-09-29T13:01:37;17.80;72.50
3348;DHT22;1687;49.540;8.574;2022-09-29T13:07:43;18.00;72.40
3348;DHT22;1687;49.540;8.574;2022-09-29T13:13:36;18.00;71.90
3348;DHT22;1687;49.540;8.574;2022-09-29T13:16:24;18.00;71.40
3348;DHT22;1687;49.540;8.574;2022-09-29T13:22:14;17.70;70.50
3348;DHT22;1687;49.540;8.574;2022-09-29T13:24:52;17.60;71.00
3348;DHT22;1687;49.540;8.574;2022-09-29T13:27:38;17.70;70.90
3348;DHT22;1687;49.540;8.574;2022-09-29T13:30:26;17.70;70.50
3348;DHT22;1687;49.540;8.574;2022-09-29T13:33:02;17.70;70.60
3348;DHT22;1687;49.540;8.574;2022-09-29T13:35:42;17.80;71.00
3348;DHT22;1687;49.540;8.574;2022-09-29T13:38:21;18.00;70.90
3348;DHT22;1687;49.540;8.574;2022-09-29T13:46:40;17.90;69.80
3348;DHT22;1687;49.540;8.574;2022-09-29T13:54:50;17.60;69.10
3348;DHT22;1687;49.540;8.574;2022-09-29T14:00:00;17.80;69.00
3348;DHT22;1687;49.540;8.574;2022-09-29T14:02:36;17.90;68.70
3348;DHT22;1687;49.540;8.574;2022-09-29T14:10:23;18.30;68.50
3348;DHT22;1687;49.540;8.574;2022-09-29T14:13:21;18.40;68.60
3348;DHT22;1687;49.540;8.574;2022-09-29T14:16:20;18.40;67.70
3348;DHT22;1687;49.540;8.574;2022-09-29T14:19:19;18.30;67.10
3348;DHT22;1687;49.540;8.574;2022-09-29T14:21:58;18.10;67.00
3348;DHT22;1687;49.540;8.574;2022-09-29T14:24:43;18.00;67.70
3348;DHT22;1687;49.540;8.574;2022-09-29T14:27:31;17.90;66.80
3348;DHT22;1687;49.540;8.574;2022-09-29T14:32:39;17.90;66.80
3348;DHT22;1687;49.540;8.574;2022-09-29T14:43:50;17.60;66.20
3348;DHT22;1687;49.540;8.574;2022-09-29T14:58:18;17.20;66.60
3348;DHT22;1687;49.540;8.574;2022-09-29T15:03:46;17.00;66.20
3348;DHT22;1687;49.540;8.574;2022-09-29T15:09:10;16.90;66.60
3348;DHT22;1687;49.540;8.574;2022-09-29T15:11:44;16.80;66.50
3348;DHT22;1687;49.540;8.574;2022-09-29T15:19:43;17.30;67.20
3348;DHT22;1687;49.540;8.574;2022-09-29T15:22:41;17.30;66.60
3348;DHT22;1687;49.540;8.574;2022-09-29T15:25:23;17.10;66.50
3348;DHT22;1687;49.540;8.574;2022-09-29T15:30:36;16.80;66.50
3348;DHT22;1687;49.540;8.574;2022-09-29T15:33:19;16.80;66.80
3348;DHT22;1687;49.540;8.574;2022-09-29T15:35:52;16.80;66.90
3348;DHT22;1687;49.540;8.574;2022-09-29T15:40:55;16.70;66.70
3348;DHT22;1687;49.540;8.574;2022-09-29T15:43:29;16.60;66.70
3348;DHT22;1687;49.540;8.574;2022-09-29T15:46:22;16.60;67.10
3348;DHT22;1687;49.540;8.574;2022-09-29T15:52:04;16.50;67.00
3348;DHT22;1687;49.540;8.574;2022-09-29T15:54:34;16.60;67.20
3348;DHT22;1687;49.540;8.574;2022-09-29T15:57:05;16.50;67.10
3348;DHT22;1687;49.540;8.574;2022-09-29T15:59:51;16.50;67.20
3348;DHT22;1687;49.540;8.574;2022-09-29T16:02:34;16.50;67.30
3348;DHT22;1687;49.540;8.574;2022-09-29T16:05:05;16.50;67.30
3348;DHT22;1687;49.540;8.574;2022-09-29T16:07:38;16.50;67.40
3348;DHT22;1687;49.540;8.574;2022-09-29T16:10:20;16.50;67.40
3348;DHT22;1687;49.540;8.574;2022-09-29T16:12:56;16.40;67.50
3348;DHT22;1687;49.540;8.574;2022-09-29T16:15:35;16.40;67.60
3348;DHT22;1687;49.540;8.574;2022-09-29T16:18:14;16.30;67.50
3348;DHT22;1687;49.540;8.574;2022-09-29T16:20:43;16.30;67.70
3348;DHT22;1687;49.540;8.574;2022-09-29T16:23:35;16.30;67.70
3348;DHT22;1687;49.540;8.574;2022-09-29T16:26:14;16.30;67.60
3348;DHT22;1687;49.540;8.574;2022-09-29T16:29:04;16.20;67.50
3348;DHT22;1687;49.540;8.574;2022-09-29T16:31:32;16.00;67.40
3348;DHT22;1687;49.540;8.574;2022-09-29T16:34:00;15.90;67.50
3348;DHT22;1687;49.540;8.574;2022-09-29T16:36:33;15.80;67.60
3348;DHT22;1687;49.540;8.574;2022-09-29T16:39:05;15.80;67.70
3348;DHT22;1687;49.540;8.574;2022-09-29T16:41:33;15.80;67.90
3348;DHT22;1687;49.540;8.574;2022-09-29T16:44:29;15.80;67.90
3348;DHT22;1687;49.540;8.574;2022-09-29T16:47:15;15.70;67.90
3348;DHT22;1687;49.540;8.574;2022-09-29T16:49:52;15.60;67.80
3348;DHT22;1687;49.540;8.574;2022-09-29T16:52:27;15.50;67.90
3348;DHT22;1687;49.540;8.574;2022-09-29T16:57:58;15.40;68.30
3348;DHT22;1687;49.540;8.574;2022-09-29T17:00:25;15.40;68.40
3348;DHT22;1687;49.540;8.574;2022-09-29T17:02:53;15.40;68.40
3348;DHT22;1687;49.540;8.574;2022-09-29T17:05:26;15.40;68.50
3348;DHT22;1687;49.540;8.574;2022-09-29T17:08:05;15.30;69.10
3348;DHT22;1687;49.540;8.574;2022-09-29T17:10:40;15.30;68.80
3348;DHT22;1687;49.540;8.574;2022-09-29T17:13:11;15.30;68.80
3348;DHT22;1687;49.540;8.574;2022-09-29T17:15:38;15.30;68.90
3348;DHT22;1687;49.540;8.574;2022-09-29T17:18:06;15.30;68.70
3348;DHT22;1687;49.540;8.574;2022-09-29T17:20:35;15.10;68.30
3348;DHT22;1687;49.540;8.574;2022-09-29T17:23:01;14.90;68.60
3348;DHT22;1687;49.540;8.574;2022-09-29T17:25:27;14.70;68.80
3348;DHT22;1687;49.540;8.574;2022-09-29T17:27:52;14.60;69.20
3348;DHT22;1687;49.540;8.574;2022-09-29T17:30:38;14.60;69.50
3348;DHT22;1687;49.540;8.574;2022-09-29T17:33:04;14.50;69.40
3348;DHT22;1687;49.540;8.574;2022-09-29T17:35:33;14.40;69.60
3348;DHT22;1687;49.540;8.574;2022-09-29T17:38:04;14.30;69.60
3348;DHT22;1687;49.540;8.574;2022-09-29T17:40:35;14.20;70.00
3348;DHT22;1687;49.540;8.574;2022-09-29T17:43:07;14.20;70.60
3348;DHT22;1687;49.540;8.574;2022-09-29T17:45:32;14.20;70.90
3348;DHT22;1687;49.540;8.574;2022-09-29T17:48:00;14.30;71.10
3348;DHT22;1687;49.540;8.574;2022-09-29T17:50:29;14.40;71.10
3348;DHT22;1687;49.540;8.574;2022-09-29T17:52:58;14.40;71.00
3348;DHT22;1687;49.540;8.574;2022-09-29T17:55:25;14.30;71.00
3348;DHT22;1687;49.540;8.574;2022-09-29T17:57:52;14.30;71.30
3348;DHT22;1687;49.540;8.574;2022-09-29T18:00:35;14.30;71.40
3348;DHT22;1687;49.540;8.574;2022-09-29T18:03:09;14.20;71.30
3348;DHT22;1687;49.540;8.574;2022-09-29T18:05:40;14.20;71.50
3348;DHT22;1687;49.540;8.574;2022-09-29T18:08:11;14.20;71.50
3348;DHT22;1687;49.540;8.574;2022-09-29T18:13:14;14.20;71.60
3348;DHT22;1687;49.540;8.574;2022-09-29T18:15:39;14.20;71.60
3348;DHT22;1687;49.540;8.574;2022-09-29T18:18:07;14.20;71.70
3348;DHT22;1687;49.540;8.574;2022-09-29T18:20:34;14.20;72.00
3348;DHT22;1687;49.540;8.574;2022-09-29T18:23:00;14.10;71.60
3348;DHT22;1687;49.540;8.574;2022-09-29T18:25:28;14.00;71.60
3348;DHT22;1687;49.540;8.574;2022-09-29T18:27:55;14.00;71.60
3348;DHT22;1687;49.540;8.574;2022-09-29T18:30:24;14.00;72.10
3348;DHT22;1687;49.540;8.574;2022-09-29T18:32:54;13.90;71.80
3348;DHT22;1687;49.540;8.574;2022-09-29T18:35:30;13.90;72.10
3348;DHT22;1687;49.540;8.574;2022-09-29T18:37:58;13.80;71.80
3348;DHT22;1687;49.540;8.574;2022-09-29T18:40:25;13.80;72.00
3348;DHT22;1687;49.540;8.574;2022-09-29T18:42:52;13.70;72.00
3348;DHT22;1687;49.540;8.574;2022-09-29T18:45:23;13.70;72.30
3348;DHT22;1687;49.540;8.574;2022-09-29T18:47:57;13.80;72.40
3348;DHT22;1687;49.540;8.574;2022-09-29T18:50:27;13.90;72.50
3348;DHT22;1687;49.540;8.574;2022-09-29T18:52:55;13.90;72.30
3348;DHT22;1687;49.540;8.574;2022-09-29T18:55:24;14.00;72.60
3348;DHT22;1687;49.540;8.574;2022-09-29T18:57:52;14.00;72.60
3348;DHT22;1687;49.540;8.574;2022-09-29T19:00:21;14.00;72.60
3348;DHT22;1687;49.540;8.574;2022-09-29T19:02:48;14.00;72.60
3348;DHT22;1687;49.540;8.574;2022-09-29T19:05:20;14.00;72.60
3348;DHT22;1687;49.540;8.574;2022-09-29T19:07:52;14.10;72.70
3348;DHT22;1687;49.540;8.574;2022-09-29T19:10:19;14.10;72.90
3348;DHT22;1687;49.540;8.574;2022-09-29T19:12:45;14.10;72.70
3348;DHT22;1687;49.540;8.574;2022-09-29T19:15:13;14.10;72.70
3348;DHT22;1687;49.540;8.574;2022-09-29T19:17:41;14.10;72.80
3348;DHT22;1687;49.540;8.574;2022-09-29T19:20:08;14.10;72.70
3348;DHT22;1687;49.540;8.574;2022-09-29T19:22:35;14.10;72.80
3348;DHT22;1687;49.540;8.574;2022-09-29T19:25:07;14.10;72.90
3348;DHT22;1687;49.540;8.574;2022-09-29T19:27:38;14.10;72.90
3348;DHT22;1687;49.540;8.574;2022-09-29T19:30:05;14.10;72.90
3348;DHT22;1687;49.540;8.574;2022-09-29T19:32:31;14.10;72.50